Time;durP1;ratioP1;P1;durP2;ratioP2;P2;SDS_P1;SDS_P2;PMS_P1;PMS_P2;Temp;Humidity;BMP_temperature;BMP_pressure;BME280_temperature;BME280_humidity;BME280_pressure;Samples;Min_cycle;Max_cycle;Signal;HPM_P1;HPM_P2
2023/12/27 00:02:16;;;;;;;;;;;7.50;99.90;;;;;;5143621;27;19955;-69
2023/12/27 00:04:41;;;;;;;;;;;7.40;99.90;;;;;;5136773;27;19911;-69
2023/12/27 00:07:07;;;;;;;;;;;7.40;99.90;;;;;;5125750;27;19915;-69
2023/12/27 00:09:32;;;;;;;;;;;7.40;99.90;;;;;;5107253;27;19911;-69
2023/12/27 00:11:58;;;;;;;;;;;7.40;99.90;;;;;;5129499;27;19918;-69
2023/12/27 00:14:23;;;;;;;;;;;7.40;99.90;;;;;;5130991;27;19912;-69
2023/12/27 00:16:49;;;;;;;;;;;7.40;99.90;;;;;;5141383;27;19919;-69
2023/12/27 00:19:14;;;;;;;;;;;7.40;99.90;;;;;;5125636;27;19915;-69
2023/12/27 00:21:40;;;;;;;;;;;7.40;99.90;;;;;;5116454;27;19918;-69
2023/12/27 00:24:06;;;;;;;;;;;7.40;99.90;;;;;;5146355;27;20335;-69
2023/12/27 00:26:31;;;;;;;;;;;7.40;99.90;;;;;;5130005;27;19911;-69
2023/12/27 00:28:57;;;;;;;;;;;7.30;99.90;;;;;;5134028;27;19911;-69
2023/12/27 00:31:23;;;;;;;;;;;7.30;99.90;;;;;;5128559;27;19926;-69
2023/12/27 00:33:48;;;;;;;;;;;7.30;99.90;;;;;;5127596;27;19919;-69
2023/12/27 00:36:18;;;;;;;;;;;7.30;99.90;;;;;;5124152;27;19911;-69
2023/12/27 00:38:43;;;;;;;;;;;7.30;99.90;;;;;;5115628;27;20081;-70
2023/12/27 00:41:08;;;;;;;;;;;7.30;99.90;;;;;;5121370;27;20006;-69
2023/12/27 00:43:34;;;;;;;;;;;7.30;99.90;;;;;;5136722;27;19911;-70
2023/12/27 00:45:59;;;;;;;;;;;7.20;99.90;;;;;;5117166;27;19918;-69
2023/12/27 00:48:25;;;;;;;;;;;7.30;99.90;;;;;;5129683;27;19912;-69
2023/12/27 00:50:51;;;;;;;;;;;7.30;99.90;;;;;;5135470;27;19915;-69
2023/12/27 00:53:16;;;;;;;;;;;7.20;99.90;;;;;;5131445;27;19911;-70
2023/12/27 00:55:42;;;;;;;;;;;7.20;99.90;;;;;;5134963;27;20341;-69
2023/12/27 00:58:07;;;;;;;;;;;7.20;99.90;;;;;;5141475;27;20574;-69
2023/12/27 01:00:33;;;;;;;;;;;7.20;99.90;;;;;;5128286;27;19911;-69
2023/12/27 01:02:58;;;;;;;;;;;7.20;99.90;;;;;;5137000;27;20419;-69
2023/12/27 01:05:24;;;;;;;;;;;7.20;99.90;;;;;;5138610;27;19911;-69
2023/12/27 01:07:49;;;;;;;;;;;7.20;99.90;;;;;;5135724;27;19975;-69
2023/12/27 01:10:15;;;;;;;;;;;7.20;99.90;;;;;;5139939;27;20268;-69
2023/12/27 01:12:40;;;;;;;;;;;7.20;99.90;;;;;;5143295;27;20556;-69
2023/12/27 01:15:06;;;;;;;;;;;7.20;99.90;;;;;;5137439;27;19949;-69
2023/12/27 01:17:32;;;;;;;;;;;7.20;99.90;;;;;;5137655;27;19919;-69
2023/12/27 01:19:57;;;;;;;;;;;7.10;99.90;;;;;;5124446;27;20518;-69
2023/12/27 01:22:23;;;;;;;;;;;7.10;99.90;;;;;;5117897;27;19912;-69
2023/12/27 01:24:48;;;;;;;;;;;7.10;99.90;;;;;;5124979;27;20053;-69
2023/12/27 01:27:14;;;;;;;;;;;7.10;99.90;;;;;;5130777;27;19911;-69
2023/12/27 01:29:39;;;;;;;;;;;7.10;99.90;;;;;;5127712;27;20002;-69
2023/12/27 01:32:05;;;;;;;;;;;7.10;99.90;;;;;;5144236;27;19920;-69
2023/12/27 01:34:30;;;;;;;;;;;7.10;99.90;;;;;;5132562;27;20029;-69
2023/12/27 01:36:56;;;;;;;;;;;7.10;99.90;;;;;;5142221;27;19931;-69
2023/12/27 01:39:22;;;;;;;;;;;7.10;99.90;;;;;;5124300;27;19912;-69
2023/12/27 01:41:48;;;;;;;;;;;7.00;99.90;;;;;;5132831;27;19911;-69
2023/12/27 01:44:13;;;;;;;;;;;7.00;99.90;;;;;;5133621;27;20394;-69
2023/12/27 01:46:39;;;;;;;;;;;7.00;99.90;;;;;;5127312;27;19946;-69
2023/12/27 01:49:04;;;;;;;;;;;7.00;99.90;;;;;;5125109;27;20356;-69
2023/12/27 01:51:30;;;;;;;;;;;7.00;99.90;;;;;;5124317;27;19919;-69
2023/12/27 01:53:57;;;;;;;;;;;7.00;99.90;;;;;;5134173;27;20566;-69
2023/12/27 01:56:23;;;;;;;;;;;7.00;99.90;;;;;;5138728;27;19949;-69
2023/12/27 01:58:48;;;;;;;;;;;7.00;99.90;;;;;;5123947;27;19951;-69
2023/12/27 02:01:14;;;;;;;;;;;7.00;99.90;;;;;;5109457;28;20007;-69
2023/12/27 02:03:40;;;;;;;;;;;6.90;99.90;;;;;;5126947;27;20363;-69
2023/12/27 02:06:06;;;;;;;;;;;6.90;99.90;;;;;;5110277;27;19911;-69
2023/12/27 02:08:31;;;;;;;;;;;6.90;99.90;;;;;;5136948;27;19968;-69
2023/12/27 02:10:57;;;;;;;;;;;6.90;99.90;;;;;;5130829;27;19915;-69
2023/12/27 02:13:23;;;;;;;;;;;6.90;99.90;;;;;;5142700;27;20240;-69
2023/12/27 02:15:48;;;;;;;;;;;6.90;99.90;;;;;;5128244;27;19943;-69
2023/12/27 02:18:14;;;;;;;;;;;6.90;99.90;;;;;;5137263;27;20706;-69
2023/12/27 02:20:40;;;;;;;;;;;6.80;99.90;;;;;;5128778;27;20006;-69
2023/12/27 02:23:07;;;;;;;;;;;6.80;99.90;;;;;;5130435;27;20669;-69
2023/12/27 02:25:33;;;;;;;;;;;6.80;99.90;;;;;;5121669;27;20267;-69
2023/12/27 02:27:58;;;;;;;;;;;6.80;99.90;;;;;;5137064;27;19911;-69
2023/12/27 02:30:24;;;;;;;;;;;6.80;99.90;;;;;;5129653;27;20056;-69
2023/12/27 02:32:50;;;;;;;;;;;6.80;99.90;;;;;;5121700;27;19927;-69
2023/12/27 02:35:16;;;;;;;;;;;6.80;99.90;;;;;;5140535;27;19937;-69
2023/12/27 02:37:41;;;;;;;;;;;6.80;99.90;;;;;;5132095;27;19912;-69
2023/12/27 02:40:07;;;;;;;;;;;6.80;99.90;;;;;;5135752;27;20522;-69
2023/12/27 02:42:33;;;;;;;;;;;6.70;99.90;;;;;;5136652;27;19912;-69
2023/12/27 02:44:59;;;;;;;;;;;6.70;99.90;;;;;;5121035;27;19918;-69
2023/12/27 02:47:24;;;;;;;;;;;6.70;99.90;;;;;;5138813;27;19969;-69
2023/12/27 02:49:50;;;;;;;;;;;6.70;99.90;;;;;;5129687;27;19908;-69
2023/12/27 02:52:15;;;;;;;;;;;6.70;99.90;;;;;;5129138;27;19918;-69
2023/12/27 02:54:41;;;;;;;;;;;6.70;99.90;;;;;;5136197;27;19972;-69
2023/12/27 02:57:06;;;;;;;;;;;6.70;99.90;;;;;;5127721;27;19928;-69
2023/12/27 02:59:32;;;;;;;;;;;6.70;99.90;;;;;;5143890;27;20576;-69
2023/12/27 03:01:57;;;;;;;;;;;6.70;99.90;;;;;;5131840;27;19912;-69
2023/12/27 03:04:23;;;;;;;;;;;6.60;99.90;;;;;;5127691;27;19954;-69
2023/12/27 03:06:49;;;;;;;;;;;6.60;99.90;;;;;;5127581;27;19937;-69
2023/12/27 03:09:15;;;;;;;;;;;6.60;99.90;;;;;;5127738;27;19907;-69
2023/12/27 03:11:40;;;;;;;;;;;6.60;99.90;;;;;;5135821;27;19922;-69
2023/12/27 03:14:06;;;;;;;;;;;6.60;99.90;;;;;;5131990;27;19979;-69
2023/12/27 03:16:31;;;;;;;;;;;6.60;99.90;;;;;;5137946;27;19911;-69
2023/12/27 03:18:57;;;;;;;;;;;6.60;99.90;;;;;;5130832;27;19922;-69
2023/12/27 03:21:23;;;;;;;;;;;6.60;99.90;;;;;;5133154;27;20420;-69
2023/12/27 03:23:48;;;;;;;;;;;6.60;99.90;;;;;;5126828;27;19911;-69
2023/12/27 03:26:14;;;;;;;;;;;6.60;99.90;;;;;;5132993;27;20081;-69
2023/12/27 03:28:39;;;;;;;;;;;6.60;99.90;;;;;;5132522;27;19918;-69
2023/12/27 03:31:05;;;;;;;;;;;6.50;99.90;;;;;;5138307;27;19919;-69
2023/12/27 03:33:31;;;;;;;;;;;6.60;99.90;;;;;;5127351;27;19912;-69
2023/12/27 03:35:56;;;;;;;;;;;6.50;99.90;;;;;;5135640;27;20708;-69
2023/12/27 03:38:22;;;;;;;;;;;6.50;99.90;;;;;;5135731;27;20356;-69
2023/12/27 03:40:47;;;;;;;;;;;6.50;99.90;;;;;;5124962;27;20249;-69
2023/12/27 03:43:13;;;;;;;;;;;6.50;99.90;;;;;;5116725;27;19911;-69
2023/12/27 03:45:39;;;;;;;;;;;6.50;99.90;;;;;;5125960;27;20046;-69
2023/12/27 03:48:04;;;;;;;;;;;6.50;99.90;;;;;;5138809;27;20488;-69
2023/12/27 03:50:30;;;;;;;;;;;6.50;99.90;;;;;;5130909;27;20365;-69
2023/12/27 03:52:55;;;;;;;;;;;6.50;99.90;;;;;;5134624;27;19911;-69
2023/12/27 03:55:23;;;;;;;;;;;6.50;99.90;;;;;;5135227;27;20565;-69
2023/12/27 03:57:49;;;;;;;;;;;6.40;99.90;;;;;;5126092;27;19918;-69
2023/12/27 04:00:14;;;;;;;;;;;6.40;99.90;;;;;;5134964;27;19911;-69
2023/12/27 04:02:40;;;;;;;;;;;6.40;99.90;;;;;;5137654;27;20351;-69
2023/12/27 04:05:06;;;;;;;;;;;6.40;99.90;;;;;;5138854;27;19915;-69
2023/12/27 04:07:31;;;;;;;;;;;6.40;99.90;;;;;;5138412;27;19993;-69
2023/12/27 04:09:56;;;;;;;;;;;6.40;99.90;;;;;;5135155;27;19911;-69
2023/12/27 04:12:22;;;;;;;;;;;6.40;99.90;;;;;;5135029;27;19919;-69
2023/12/27 04:14:48;;;;;;;;;;;6.40;99.90;;;;;;5134526;27;19946;-69
2023/12/27 04:17:13;;;;;;;;;;;6.40;99.90;;;;;;5123931;27;19911;-69
2023/12/27 04:19:39;;;;;;;;;;;6.40;99.90;;;;;;5134397;27;19912;-69
2023/12/27 04:22:05;;;;;;;;;;;6.40;99.90;;;;;;5134770;27;20385;-69
2023/12/27 04:24:30;;;;;;;;;;;6.30;99.90;;;;;;5141942;27;19915;-69
2023/12/27 04:26:56;;;;;;;;;;;6.40;99.90;;;;;;5126337;27;19911;-69
2023/12/27 04:29:21;;;;;;;;;;;6.30;99.90;;;;;;5113324;27;19915;-69
2023/12/27 04:31:47;;;;;;;;;;;6.30;99.90;;;;;;5141196;27;19919;-69
2023/12/27 04:34:13;;;;;;;;;;;6.30;99.90;;;;;;5141339;27;19918;-69
2023/12/27 04:36:38;;;;;;;;;;;6.30;99.90;;;;;;5134276;27;19911;-69
2023/12/27 04:39:04;;;;;;;;;;;6.30;99.90;;;;;;5137807;27;19994;-69
2023/12/27 04:41:29;;;;;;;;;;;6.30;99.90;;;;;;5130028;27;19914;-69
2023/12/27 04:43:55;;;;;;;;;;;6.30;99.90;;;;;;5136381;27;20648;-69
2023/12/27 04:46:20;;;;;;;;;;;6.30;99.90;;;;;;5136956;27;19913;-69
2023/12/27 04:48:46;;;;;;;;;;;6.30;99.90;;;;;;5115977;27;19915;-69
2023/12/27 04:51:12;;;;;;;;;;;6.30;99.90;;;;;;5132752;27;20604;-69
2023/12/27 04:53:37;;;;;;;;;;;6.30;99.90;;;;;;5134006;27;19911;-69
2023/12/27 04:56:03;;;;;;;;;;;6.30;99.90;;;;;;5114848;27;20653;-69
2023/12/27 04:58:29;;;;;;;;;;;6.30;99.90;;;;;;5125516;27;19972;-69
2023/12/27 05:00:54;;;;;;;;;;;6.30;99.90;;;;;;5139611;27;19919;-69
2023/12/27 05:03:20;;;;;;;;;;;6.30;99.90;;;;;;5139679;27;19912;-69
2023/12/27 05:05:45;;;;;;;;;;;6.30;99.90;;;;;;5136884;27;19969;-69
2023/12/27 05:08:11;;;;;;;;;;;6.30;99.90;;;;;;5124948;27;19918;-69
2023/12/27 05:10:36;;;;;;;;;;;6.30;99.90;;;;;;5141775;27;19915;-69
2023/12/27 05:13:02;;;;;;;;;;;6.20;99.90;;;;;;5128178;27;19911;-69
2023/12/27 05:15:27;;;;;;;;;;;6.20;99.90;;;;;;5135996;27;20010;-69
2023/12/27 05:17:53;;;;;;;;;;;6.30;99.90;;;;;;5134844;27;20302;-69
2023/12/27 05:20:18;;;;;;;;;;;6.30;99.90;;;;;;5112238;28;19911;-69
2023/12/27 05:22:44;;;;;;;;;;;6.30;99.90;;;;;;5124616;27;19969;-69
2023/12/27 05:25:10;;;;;;;;;;;6.30;99.90;;;;;;5133185;27;20371;-69
2023/12/27 05:27:36;;;;;;;;;;;6.30;99.90;;;;;;5115158;27;19918;-69
2023/12/27 05:30:02;;;;;;;;;;;6.30;99.90;;;;;;5125114;27;19915;-69
2023/12/27 05:32:27;;;;;;;;;;;6.30;99.90;;;;;;5143983;27;20078;-69
2023/12/27 05:34:53;;;;;;;;;;;6.30;99.90;;;;;;5134484;27;19928;-69
2023/12/27 05:37:19;;;;;;;;;;;6.30;99.90;;;;;;5126515;27;19925;-69
2023/12/27 05:39:45;;;;;;;;;;;6.30;99.90;;;;;;5134733;27;19907;-69
2023/12/27 05:42:11;;;;;;;;;;;6.30;99.90;;;;;;5129502;27;19918;-69
2023/12/27 05:44:36;;;;;;;;;;;6.30;99.90;;;;;;5138159;27;19911;-69
2023/12/27 05:47:02;;;;;;;;;;;6.30;99.90;;;;;;5143298;27;20002;-69
2023/12/27 05:49:27;;;;;;;;;;;6.30;99.90;;;;;;5134087;27;19911;-69
2023/12/27 05:51:53;;;;;;;;;;;6.30;99.90;;;;;;5129468;27;19919;-69
2023/12/27 05:54:18;;;;;;;;;;;6.30;99.90;;;;;;5136077;27;19919;-69
2023/12/27 05:56:44;;;;;;;;;;;6.30;99.90;;;;;;5129008;27;19912;-69
2023/12/27 05:59:09;;;;;;;;;;;6.30;99.90;;;;;;5129260;27;19911;-69
2023/12/27 06:01:35;;;;;;;;;;;6.20;99.90;;;;;;5129040;27;19923;-69
2023/12/27 06:04:03;;;;;;;;;;;6.30;99.90;;;;;;5130814;27;19938;-69
2023/12/27 06:06:32;;;;;;;;;;;6.30;99.90;;;;;;5142587;27;19923;-69
2023/12/27 06:08:57;;;;;;;;;;;6.30;99.90;;;;;;5139540;27;19980;-69
2023/12/27 06:11:23;;;;;;;;;;;6.20;99.90;;;;;;5140620;27;19919;-69
2023/12/27 06:13:49;;;;;;;;;;;6.30;99.90;;;;;;5130706;27;20013;-69
2023/12/27 06:16:15;;;;;;;;;;;6.30;99.90;;;;;;5133641;27;19911;-69
2023/12/27 06:18:40;;;;;;;;;;;6.30;99.90;;;;;;5130169;27;20378;-69
2023/12/27 06:21:06;;;;;;;;;;;6.30;99.90;;;;;;5137059;27;20228;-69
2023/12/27 06:23:31;;;;;;;;;;;6.30;99.90;;;;;;5119837;27;20003;-69
2023/12/27 06:25:57;;;;;;;;;;;6.30;99.90;;;;;;5136862;27;19919;-69
2023/12/27 06:28:22;;;;;;;;;;;6.20;99.90;;;;;;5137431;27;19919;-69
2023/12/27 06:30:48;;;;;;;;;;;6.20;99.90;;;;;;5128275;27;19915;-69
2023/12/27 06:33:13;;;;;;;;;;;6.30;99.90;;;;;;5142231;27;20022;-69
2023/12/27 06:35:39;;;;;;;;;;;6.30;99.90;;;;;;5140712;27;19915;-69
2023/12/27 06:38:04;;;;;;;;;;;6.30;99.90;;;;;;5145499;27;19911;-69
2023/12/27 06:40:30;;;;;;;;;;;6.30;99.90;;;;;;5135291;27;19918;-69
2023/12/27 06:42:55;;;;;;;;;;;6.30;99.90;;;;;;5131694;27;20028;-69
2023/12/27 06:45:21;;;;;;;;;;;6.30;99.90;;;;;;5130419;27;19935;-69
2023/12/27 06:47:46;;;;;;;;;;;6.30;99.90;;;;;;5140199;27;20681;-69
2023/12/27 06:50:12;;;;;;;;;;;6.30;99.90;;;;;;5140751;27;19915;-69
2023/12/27 06:52:37;;;;;;;;;;;6.30;99.90;;;;;;5149014;27;19911;-69
2023/12/27 06:55:03;;;;;;;;;;;6.30;99.90;;;;;;5136658;27;19957;-69
2023/12/27 06:57:29;;;;;;;;;;;6.30;99.90;;;;;;5135010;27;19911;-69
2023/12/27 06:59:54;;;;;;;;;;;6.30;99.90;;;;;;5129116;27;20383;-69
2023/12/27 07:02:20;;;;;;;;;;;6.30;99.90;;;;;;5133953;27;20367;-69
2023/12/27 07:04:45;;;;;;;;;;;6.30;99.90;;;;;;5130890;27;19914;-69
2023/12/27 07:07:11;;;;;;;;;;;6.30;99.90;;;;;;5129936;27;19911;-69
2023/12/27 07:09:36;;;;;;;;;;;6.40;99.90;;;;;;5131963;27;19911;-69
2023/12/27 07:12:02;;;;;;;;;;;6.30;99.90;;;;;;5127525;27;19944;-69
2023/12/27 07:14:27;;;;;;;;;;;6.30;99.90;;;;;;5143229;27;19915;-69
2023/12/27 07:16:53;;;;;;;;;;;6.30;99.90;;;;;;5143213;27;19915;-69
2023/12/27 07:19:19;;;;;;;;;;;6.30;99.90;;;;;;5137095;27;19991;-69
2023/12/27 07:21:44;;;;;;;;;;;6.40;99.90;;;;;;5136576;27;19917;-69
2023/12/27 07:24:10;;;;;;;;;;;6.40;99.90;;;;;;5135894;27;20311;-69
2023/12/27 07:26:35;;;;;;;;;;;6.40;99.90;;;;;;5136252;27;20026;-69
2023/12/27 07:29:01;;;;;;;;;;;6.30;99.90;;;;;;5128349;27;19912;-69
2023/12/27 07:31:26;;;;;;;;;;;6.40;99.90;;;;;;5126651;27;19926;-69
2023/12/27 07:33:52;;;;;;;;;;;6.40;99.90;;;;;;5126640;27;19911;-69
2023/12/27 07:36:18;;;;;;;;;;;6.40;99.90;;;;;;5128204;27;19911;-69
2023/12/27 07:38:43;;;;;;;;;;;6.40;99.90;;;;;;5108760;27;19915;-69
2023/12/27 07:41:09;;;;;;;;;;;6.40;99.90;;;;;;5130775;27;20256;-69
2023/12/27 07:43:35;;;;;;;;;;;6.40;99.90;;;;;;5129117;27;19911;-69
2023/12/27 07:46:01;;;;;;;;;;;6.40;99.90;;;;;;5128623;27;19946;-69
2023/12/27 07:48:27;;;;;;;;;;;6.40;99.90;;;;;;5128334;27;19919;-69
2023/12/27 07:50:55;;;;;;;;;;;6.40;99.90;;;;;;5128385;27;19923;-69
2023/12/27 07:53:21;;;;;;;;;;;6.40;99.90;;;;;;5140155;27;20252;-69
2023/12/27 07:55:46;;;;;;;;;;;6.50;99.90;;;;;;5112644;27;19912;-69
2023/12/27 07:58:12;;;;;;;;;;;6.50;99.90;;;;;;5129005;27;19965;-69
2023/12/27 08:00:37;;;;;;;;;;;6.50;99.90;;;;;;5131299;27;19926;-69
2023/12/27 08:03:08;;;;;;;;;;;6.50;99.90;;;;;;5130125;27;19961;-69
2023/12/27 08:05:36;;;;;;;;;;;6.50;99.90;;;;;;5130100;27;19947;-69
2023/12/27 08:08:03;;;;;;;;;;;6.50;99.90;;;;;;5131226;27;20429;-69
2023/12/27 08:10:28;;;;;;;;;;;6.50;99.90;;;;;;5112131;27;19922;-69
2023/12/27 08:12:54;;;;;;;;;;;6.50;99.90;;;;;;5127453;27;20279;-69
2023/12/27 08:15:19;;;;;;;;;;;6.50;99.90;;;;;;5126709;27;19907;-69
2023/12/27 08:17:45;;;;;;;;;;;6.50;99.90;;;;;;5111992;27;19918;-69
2023/12/27 08:20:10;;;;;;;;;;;6.50;99.90;;;;;;5110006;27;19991;-69
2023/12/27 08:22:36;;;;;;;;;;;6.50;99.90;;;;;;5126528;27;19911;-69
2023/12/27 08:25:04;;;;;;;;;;;6.50;99.90;;;;;;5109382;27;19922;-69
2023/12/27 08:27:29;;;;;;;;;;;6.50;99.90;;;;;;5130704;27;20016;-69
2023/12/27 08:29:55;;;;;;;;;;;6.60;99.90;;;;;;5127674;27;20374;-69
2023/12/27 08:32:20;;;;;;;;;;;6.50;99.90;;;;;;5125956;27;19962;-69
2023/12/27 08:34:46;;;;;;;;;;;6.50;99.90;;;;;;5128340;27;19917;-69
2023/12/27 08:37:12;;;;;;;;;;;6.60;99.90;;;;;;5124641;27;19916;-69
2023/12/27 08:39:38;;;;;;;;;;;6.60;99.90;;;;;;5125488;27;20584;-69
2023/12/27 08:42:03;;;;;;;;;;;6.60;99.90;;;;;;5130492;27;19961;-69
2023/12/27 08:44:29;;;;;;;;;;;6.60;99.90;;;;;;5125569;27;20376;-69
2023/12/27 08:46:54;;;;;;;;;;;6.60;99.90;;;;;;5124227;27;19907;-69
2023/12/27 08:49:20;;;;;;;;;;;6.60;99.90;;;;;;5120162;27;19907;-69
2023/12/27 08:51:45;;;;;;;;;;;6.60;99.90;;;;;;5103962;27;20018;-69
2023/12/27 08:54:11;;;;;;;;;;;6.60;99.90;;;;;;5124804;27;19942;-69
2023/12/27 08:56:36;;;;;;;;;;;6.70;99.90;;;;;;5121906;27;19978;-70
2023/12/27 08:59:02;;;;;;;;;;;6.70;99.90;;;;;;5123499;27;20010;-69
2023/12/27 09:01:28;;;;;;;;;;;6.70;99.90;;;;;;5126477;27;19911;-69
2023/12/27 09:03:53;;;;;;;;;;;6.70;99.90;;;;;;5123486;27;19914;-69
2023/12/27 09:06:19;;;;;;;;;;;6.70;99.90;;;;;;5130442;27;19911;-69
2023/12/27 09:08:44;;;;;;;;;;;6.70;99.90;;;;;;5107613;27;19911;-69
2023/12/27 09:11:10;;;;;;;;;;;6.70;99.90;;;;;;5127806;27;20005;-69
2023/12/27 09:13:35;;;;;;;;;;;6.70;99.90;;;;;;5105212;28;19915;-69
2023/12/27 09:16:03;;;;;;;;;;;6.70;99.90;;;;;;5124214;27;20010;-69
2023/12/27 09:18:29;;;;;;;;;;;6.70;99.90;;;;;;5121753;27;20385;-69
2023/12/27 09:20:54;;;;;;;;;;;6.80;99.90;;;;;;5122577;27;19919;-69
2023/12/27 09:23:20;;;;;;;;;;;6.80;99.90;;;;;;5126508;27;20416;-69
2023/12/27 09:25:45;;;;;;;;;;;6.80;99.90;;;;;;5126469;27;19916;-69
2023/12/27 09:28:11;;;;;;;;;;;6.80;99.90;;;;;;5126741;27;19963;-69
2023/12/27 09:30:38;;;;;;;;;;;6.80;99.90;;;;;;5124368;27;19915;-69
2023/12/27 09:33:04;;;;;;;;;;;6.90;99.90;;;;;;5123612;27;20424;-69
2023/12/27 09:35:29;;;;;;;;;;;6.80;99.90;;;;;;5127644;27;19911;-69
2023/12/27 09:37:55;;;;;;;;;;;6.90;99.90;;;;;;5111628;27;19913;-69
2023/12/27 09:40:21;;;;;;;;;;;6.90;99.90;;;;;;5128860;27;19987;-69
2023/12/27 09:42:48;;;;;;;;;;;6.90;99.90;;;;;;5137183;27;19911;-69
2023/12/27 09:45:15;;;;;;;;;;;6.90;99.90;;;;;;5124312;27;20621;-69
2023/12/27 09:47:41;;;;;;;;;;;7.00;99.90;;;;;;5123682;27;19915;-69
2023/12/27 09:50:07;;;;;;;;;;;7.00;99.90;;;;;;5123214;27;19951;-69
2023/12/27 09:52:33;;;;;;;;;;;7.00;99.90;;;;;;5124185;27;20022;-69
2023/12/27 09:54:59;;;;;;;;;;;7.00;99.90;;;;;;5132630;27;19907;-69
2023/12/27 09:57:25;;;;;;;;;;;7.00;99.90;;;;;;5130220;27;19963;-69
2023/12/27 09:59:52;;;;;;;;;;;7.00;99.90;;;;;;5134719;27;19911;-69
2023/12/27 10:02:19;;;;;;;;;;;7.10;99.90;;;;;;5133279;27;20006;-69
2023/12/27 10:04:53;;;;;;;;;;;7.10;99.90;;;;;;5133041;27;19972;-69
2023/12/27 10:07:20;;;;;;;;;;;7.10;99.90;;;;;;5131685;27;19911;-69
2023/12/27 10:09:46;;;;;;;;;;;7.10;99.90;;;;;;5140815;27;19983;-69
2023/12/27 10:12:13;;;;;;;;;;;7.10;99.90;;;;;;5124271;27;19927;-69
2023/12/27 10:14:39;;;;;;;;;;;7.20;99.90;;;;;;5131585;27;19911;-69
2023/12/27 10:17:05;;;;;;;;;;;7.20;99.90;;;;;;5141012;27;19952;-69
2023/12/27 10:19:40;;;;;;;;;;;7.10;99.90;;;;;;5123902;27;19915;-69
2023/12/27 10:22:06;;;;;;;;;;;7.20;99.90;;;;;;5127182;27;19918;-69
2023/12/27 10:24:32;;;;;;;;;;;7.20;99.90;;;;;;5118165;27;19910;-69
2023/12/27 10:26:58;;;;;;;;;;;7.20;99.90;;;;;;5138045;27;20279;-69
2023/12/27 10:29:23;;;;;;;;;;;7.20;99.90;;;;;;5128434;27;19963;-69
2023/12/27 10:31:49;;;;;;;;;;;7.20;99.90;;;;;;5136173;27;20475;-69
2023/12/27 10:34:14;;;;;;;;;;;7.20;99.90;;;;;;5137223;27;19911;-69
2023/12/27 10:36:42;;;;;;;;;;;7.20;99.90;;;;;;5140974;27;19918;-69
2023/12/27 10:39:09;;;;;;;;;;;7.20;99.90;;;;;;5139855;27;19910;-69
2023/12/27 10:41:37;;;;;;;;;;;7.30;99.90;;;;;;5121462;27;20387;-69
2023/12/27 10:44:04;;;;;;;;;;;7.30;99.90;;;;;;5145714;27;19911;-70
2023/12/27 10:46:30;;;;;;;;;;;7.30;99.90;;;;;;5136865;27;19911;-69
2023/12/27 10:48:59;;;;;;;;;;;7.30;99.90;;;;;;5137957;27;20052;-69
2023/12/27 10:51:27;;;;;;;;;;;7.30;99.90;;;;;;5130336;27;19923;-70
2023/12/27 10:53:57;;;;;;;;;;;7.40;99.90;;;;;;5136249;27;20376;-69
2023/12/27 10:56:23;;;;;;;;;;;7.40;99.90;;;;;;5117937;27;19911;-69
2023/12/27 10:58:49;;;;;;;;;;;7.40;99.90;;;;;;5127931;27;19908;-69
2023/12/27 11:01:15;;;;;;;;;;;7.40;99.90;;;;;;5128275;27;19912;-69
2023/12/27 11:03:43;;;;;;;;;;;7.40;99.90;;;;;;5136860;27;20673;-69
2023/12/27 11:06:09;;;;;;;;;;;7.40;99.90;;;;;;5132608;27;20003;-69
2023/12/27 11:08:35;;;;;;;;;;;7.50;99.90;;;;;;5134743;27;19998;-69
2023/12/27 11:11:03;;;;;;;;;;;7.50;99.90;;;;;;5139180;27;19915;-69
2023/12/27 11:13:31;;;;;;;;;;;7.50;99.90;;;;;;5133447;27;19976;-69
2023/12/27 11:15:57;;;;;;;;;;;7.50;99.90;;;;;;5137658;27;20251;-69
2023/12/27 11:18:25;;;;;;;;;;;7.50;99.90;;;;;;5135578;27;20000;-69
2023/12/27 11:20:51;;;;;;;;;;;7.50;99.90;;;;;;5129417;27;20639;-69
2023/12/27 11:23:17;;;;;;;;;;;7.50;99.90;;;;;;5127950;27;19907;-69
2023/12/27 11:25:43;;;;;;;;;;;7.60;99.90;;;;;;5135875;27;20430;-69
2023/12/27 11:28:08;;;;;;;;;;;7.60;99.90;;;;;;5147001;27;19915;-69
2023/12/27 11:30:34;;;;;;;;;;;7.60;99.90;;;;;;5131050;27;19960;-69
2023/12/27 11:33:00;;;;;;;;;;;7.70;99.90;;;;;;5128685;27;20363;-69
2023/12/27 11:35:29;;;;;;;;;;;7.70;99.90;;;;;;5129252;27;19922;-69
2023/12/27 11:38:22;;;;;;;;;;;7.70;99.90;;;;;;5114486;27;20100;-69
2023/12/27 11:40:50;;;;;;;;;;;7.70;99.90;;;;;;5124631;27;20091;-69
2023/12/27 11:43:20;;;;;;;;;;;7.80;99.90;;;;;;5125232;27;19912;-69
2023/12/27 11:46:02;;;;;;;;;;;7.80;99.90;;;;;;5133523;27;20360;-69
2023/12/27 11:48:31;;;;;;;;;;;7.80;99.90;;;;;;5122201;27;20613;-69
2023/12/27 11:50:57;;;;;;;;;;;7.80;99.90;;;;;;5132449;27;19912;-69
2023/12/27 11:53:26;;;;;;;;;;;7.80;99.90;;;;;;5126200;27;19918;-69
2023/12/27 11:55:52;;;;;;;;;;;7.90;99.90;;;;;;5133987;27;20007;-69
2023/12/27 11:58:35;;;;;;;;;;;7.90;99.90;;;;;;5125166;27;20364;-69
2023/12/27 12:01:20;;;;;;;;;;;7.90;99.90;;;;;;5126135;27;19975;-69
2023/12/27 12:03:50;;;;;;;;;;;7.90;99.90;;;;;;5136126;27;19907;-69
2023/12/27 12:06:28;;;;;;;;;;;7.90;99.90;;;;;;5131249;27;20287;-69
2023/12/27 12:08:54;;;;;;;;;;;7.90;99.90;;;;;;5134349;27;19915;-69
2023/12/27 12:11:21;;;;;;;;;;;8.00;99.90;;;;;;5131263;27;19915;-69
2023/12/27 12:13:47;;;;;;;;;;;7.90;99.90;;;;;;5132916;27;19918;-69
2023/12/27 12:16:13;;;;;;;;;;;8.00;99.90;;;;;;5132790;27;20414;-69
2023/12/27 12:18:39;;;;;;;;;;;8.00;99.90;;;;;;5124260;27;19912;-69
2023/12/27 12:21:05;;;;;;;;;;;8.00;99.90;;;;;;5123572;27;20730;-69
2023/12/27 12:23:31;;;;;;;;;;;8.00;99.90;;;;;;5125329;27;19950;-69
2023/12/27 12:26:00;;;;;;;;;;;8.00;99.90;;;;;;5133775;27;19933;-69
2023/12/27 12:28:26;;;;;;;;;;;8.10;99.90;;;;;;5125751;27;19918;-69
2023/12/27 12:30:52;;;;;;;;;;;8.10;99.90;;;;;;5117095;27;20046;-69
2023/12/27 12:33:18;;;;;;;;;;;8.10;99.90;;;;;;5125860;27;19956;-69
2023/12/27 12:35:43;;;;;;;;;;;8.10;99.90;;;;;;5130020;27;19911;-69
2023/12/27 12:38:09;;;;;;;;;;;8.10;99.90;;;;;;5137269;27;19915;-69
2023/12/27 12:40:36;;;;;;;;;;;8.10;99.90;;;;;;5130101;27;19918;-69
2023/12/27 12:43:03;;;;;;;;;;;8.10;99.90;;;;;;5117909;27;19922;-69
2023/12/27 12:45:29;;;;;;;;;;;8.10;99.90;;;;;;5113028;27;19911;-69
2023/12/27 12:47:54;;;;;;;;;;;8.10;99.90;;;;;;5121176;27;19919;-69
2023/12/27 12:50:20;;;;;;;;;;;8.10;99.90;;;;;;5128657;27;20032;-69
2023/12/27 12:52:46;;;;;;;;;;;8.10;99.90;;;;;;5119634;27;19934;-69
2023/12/27 12:55:11;;;;;;;;;;;8.10;99.90;;;;;;5127215;27;20048;-69
2023/12/27 12:57:37;;;;;;;;;;;8.10;99.90;;;;;;5124844;27;19958;-69
2023/12/27 13:00:05;;;;;;;;;;;8.10;99.90;;;;;;5119906;27;20488;-69
2023/12/27 13:02:31;;;;;;;;;;;8.20;99.90;;;;;;5122794;27;20534;-69
2023/12/27 13:04:58;;;;;;;;;;;8.10;99.90;;;;;;5126419;27;19925;-69
2023/12/27 13:07:27;;;;;;;;;;;8.10;99.90;;;;;;5126405;27;19963;-69
2023/12/27 13:09:53;;;;;;;;;;;8.20;99.90;;;;;;5125083;27;19918;-69
2023/12/27 13:12:19;;;;;;;;;;;8.10;99.90;;;;;;5132119;27;19991;-69
2023/12/27 13:14:45;;;;;;;;;;;8.10;99.90;;;;;;5124576;27;19911;-69
2023/12/27 13:17:11;;;;;;;;;;;8.20;99.90;;;;;;5119761;27;20622;-69
2023/12/27 13:19:36;;;;;;;;;;;8.10;99.90;;;;;;5128957;27;19912;-69
2023/12/27 13:22:02;;;;;;;;;;;8.20;99.90;;;;;;5097453;27;19911;-69
2023/12/27 13:24:28;;;;;;;;;;;8.10;99.90;;;;;;5125077;27;19912;-69
2023/12/27 13:26:53;;;;;;;;;;;8.10;99.90;;;;;;5130793;27;19917;-69
2023/12/27 13:29:19;;;;;;;;;;;8.20;99.90;;;;;;5129074;27;19917;-69
2023/12/27 13:31:45;;;;;;;;;;;8.10;99.90;;;;;;5127745;27;19972;-69
2023/12/27 13:34:11;;;;;;;;;;;8.10;99.90;;;;;;5119430;27;19910;-69
2023/12/27 13:36:36;;;;;;;;;;;8.10;99.90;;;;;;5134707;27;20333;-69
2023/12/27 13:39:02;;;;;;;;;;;8.20;99.90;;;;;;5124016;27;19948;-69
2023/12/27 13:41:27;;;;;;;;;;;8.10;99.90;;;;;;5120885;28;19916;-69
2023/12/27 13:43:53;;;;;;;;;;;8.20;99.90;;;;;;5124051;27;19919;-69
2023/12/27 13:46:19;;;;;;;;;;;8.20;99.90;;;;;;5123429;28;19915;-69
2023/12/27 13:48:44;;;;;;;;;;;8.10;99.90;;;;;;5125102;27;19950;-69
2023/12/27 13:51:10;;;;;;;;;;;8.20;99.90;;;;;;5123916;27;20036;-69
2023/12/27 13:53:36;;;;;;;;;;;8.20;99.90;;;;;;5123500;27;19916;-69
2023/12/27 13:56:01;;;;;;;;;;;8.20;99.90;;;;;;5124229;27;20360;-69
2023/12/27 13:58:28;;;;;;;;;;;8.20;99.90;;;;;;5122928;27;19922;-69
2023/12/27 14:00:54;;;;;;;;;;;8.20;99.90;;;;;;5124819;27;19912;-69
2023/12/27 14:03:19;;;;;;;;;;;8.20;99.90;;;;;;5128545;27;20253;-69
2023/12/27 14:05:45;;;;;;;;;;;8.20;99.90;;;;;;5126989;27;20370;-69
2023/12/27 14:08:10;;;;;;;;;;;8.20;99.90;;;;;;5127385;27;19911;-69
2023/12/27 14:10:36;;;;;;;;;;;8.20;99.90;;;;;;5126069;27;20645;-69
2023/12/27 14:13:02;;;;;;;;;;;8.20;99.90;;;;;;5128614;27;19919;-69
2023/12/27 14:15:27;;;;;;;;;;;8.20;99.90;;;;;;5124648;27;20077;-69
2023/12/27 14:17:53;;;;;;;;;;;8.20;99.90;;;;;;5126637;27;19918;-69
2023/12/27 14:20:19;;;;;;;;;;;8.20;99.90;;;;;;5127430;27;19911;-69
2023/12/27 14:22:44;;;;;;;;;;;8.20;99.90;;;;;;5129010;27;19918;-69
2023/12/27 14:25:10;;;;;;;;;;;8.20;99.90;;;;;;5127133;27;19949;-69